sensor_id;sensor_type;location;lat;lon;timestamp;temperature;humidity
68922;DHT22;55959;51.244;5.724;2023-02-01T00:02:01;9.80;73.50
68922;DHT22;55959;51.244;5.724;2023-02-01T00:04:26;9.70;73.00
68922;DHT22;55959;51.244;5.724;2023-02-01T00:06:53;9.70;72.80
68922;DHT22;55959;51.244;5.724;2023-02-01T00:09:18;9.70;72.50
68922;DHT22;55959;51.244;5.724;2023-02-01T00:11:44;9.60;72.20
68922;DHT22;55959;51.244;5.724;2023-02-01T00:14:10;9.60;72.00
68922;DHT22;55959;51.244;5.724;2023-02-01T00:16:36;9.60;71.90
68922;DHT22;55959;51.244;5.724;2023-02-01T00:19:10;9.60;71.80
68922;DHT22;55959;51.244;5.724;2023-02-01T00:21:38;9.60;71.60
68922;DHT22;55959;51.244;5.724;2023-02-01T00:24:04;9.60;71.50
68922;DHT22;55959;51.244;5.724;2023-02-01T00:26:39;9.50;71.30
68922;DHT22;55959;51.244;5.724;2023-02-01T00:29:10;9.50;71.10
68922;DHT22;55959;51.244;5.724;2023-02-01T00:31:40;9.50;70.80
68922;DHT22;55959;51.244;5.724;2023-02-01T00:34:06;9.50;70.50
68922;DHT22;55959;51.244;5.724;2023-02-01T00:36:34;9.40;70.40
68922;DHT22;55959;51.244;5.724;2023-02-01T00:38:59;9.40;70.50
68922;DHT22;55959;51.244;5.724;2023-02-01T00:41:25;9.40;70.40
68922;DHT22;55959;51.244;5.724;2023-02-01T00:43:52;9.30;70.30
68922;DHT22;55959;51.244;5.724;2023-02-01T00:46:19;9.30;70.20
68922;DHT22;55959;51.244;5.724;2023-02-01T00:48:46;9.20;70.20
68922;DHT22;55959;51.244;5.724;2023-02-01T00:51:19;9.20;70.40
68922;DHT22;55959;51.244;5.724;2023-02-01T00:53:46;9.20;70.50
68922;DHT22;55959;51.244;5.724;2023-02-01T00:56:13;9.10;70.60
68922;DHT22;55959;51.244;5.724;2023-02-01T00:58:39;9.10;70.70
68922;DHT22;55959;51.244;5.724;2023-02-01T01:03:52;9.00;70.90
68922;DHT22;55959;51.244;5.724;2023-02-01T01:06:26;9.00;71.00
68922;DHT22;55959;51.244;5.724;2023-02-01T01:08:55;8.90;71.10
68922;DHT22;55959;51.244;5.724;2023-02-01T01:11:24;8.90;71.20
68922;DHT22;55959;51.244;5.724;2023-02-01T01:13:52;8.90;71.30
68922;DHT22;55959;51.244;5.724;2023-02-01T01:16:20;8.90;71.40
68922;DHT22;55959;51.244;5.724;2023-02-01T01:18:47;8.90;71.50
68922;DHT22;55959;51.244;5.724;2023-02-01T01:21:14;8.80;71.40
68922;DHT22;55959;51.244;5.724;2023-02-01T01:23:41;8.80;71.60
68922;DHT22;55959;51.244;5.724;2023-02-01T01:26:13;8.80;71.70
68922;DHT22;55959;51.244;5.724;2023-02-01T01:28:42;8.70;71.60
68922;DHT22;55959;51.244;5.724;2023-02-01T01:31:09;8.70;71.80
68922;DHT22;55959;51.244;5.724;2023-02-01T01:33:36;8.70;71.80
68922;DHT22;55959;51.244;5.724;2023-02-01T01:36:05;8.70;71.90
68922;DHT22;55959;51.244;5.724;2023-02-01T01:38:36;8.70;72.00
68922;DHT22;55959;51.244;5.724;2023-02-01T01:41:09;8.60;72.00
68922;DHT22;55959;51.244;5.724;2023-02-01T01:46:29;8.50;72.20
68922;DHT22;55959;51.244;5.724;2023-02-01T01:51:37;8.50;72.50
68922;DHT22;55959;51.244;5.724;2023-02-01T01:54:27;8.50;72.70
68922;DHT22;55959;51.244;5.724;2023-02-01T01:56:55;8.50;72.80
68922;DHT22;55959;51.244;5.724;2023-02-01T01:59:24;8.40;73.00
68922;DHT22;55959;51.244;5.724;2023-02-01T02:01:50;8.40;73.10
68922;DHT22;55959;51.244;5.724;2023-02-01T02:04:17;8.40;73.30
68922;DHT22;55959;51.244;5.724;2023-02-01T02:07:09;8.40;73.40
68922;DHT22;55959;51.244;5.724;2023-02-01T02:09:37;8.40;73.70
68922;DHT22;55959;51.244;5.724;2023-02-01T02:12:03;8.40;73.70
68922;DHT22;55959;51.244;5.724;2023-02-01T02:14:29;8.40;73.80
68922;DHT22;55959;51.244;5.724;2023-02-01T02:23:01;8.40;74.00
68922;DHT22;55959;51.244;5.724;2023-02-01T02:28:49;8.40;74.20
68922;DHT22;55959;51.244;5.724;2023-02-01T02:34:53;8.30;74.20
68922;DHT22;55959;51.244;5.724;2023-02-01T02:41:01;8.30;74.40
68922;DHT22;55959;51.244;5.724;2023-02-01T02:46:39;8.30;74.40
68922;DHT22;55959;51.244;5.724;2023-02-01T02:49:35;8.30;74.50
68922;DHT22;55959;51.244;5.724;2023-02-01T02:52:12;8.20;74.40
68922;DHT22;55959;51.244;5.724;2023-02-01T02:54:59;8.30;74.60
68922;DHT22;55959;51.244;5.724;2023-02-01T02:57:30;8.30;74.60
68922;DHT22;55959;51.244;5.724;2023-02-01T03:00:21;8.30;74.60
68922;DHT22;55959;51.244;5.724;2023-02-01T03:03:08;8.30;74.60
68922;DHT22;55959;51.244;5.724;2023-02-01T03:05:53;8.30;74.60
68922;DHT22;55959;51.244;5.724;2023-02-01T03:08:21;8.30;74.70
68922;DHT22;55959;51.244;5.724;2023-02-01T03:16:26;8.30;74.60
68922;DHT22;55959;51.244;5.724;2023-02-01T03:19:18;8.30;74.70
68922;DHT22;55959;51.244;5.724;2023-02-01T03:21:48;8.30;74.60
68922;DHT22;55959;51.244;5.724;2023-02-01T03:24:18;8.30;74.60
68922;DHT22;55959;51.244;5.724;2023-02-01T03:26:55;8.30;74.60
68922;DHT22;55959;51.244;5.724;2023-02-01T03:29:30;8.30;74.60
68922;DHT22;55959;51.244;5.724;2023-02-01T03:32:01;8.30;74.40
68922;DHT22;55959;51.244;5.724;2023-02-01T03:34:27;8.30;74.30
68922;DHT22;55959;51.244;5.724;2023-02-01T03:36:59;8.30;74.30
68922;DHT22;55959;51.244;5.724;2023-02-01T03:39:46;8.30;74.30
68922;DHT22;55959;51.244;5.724;2023-02-01T03:42:27;8.30;74.30
68922;DHT22;55959;51.244;5.724;2023-02-01T03:45:15;8.30;74.30
68922;DHT22;55959;51.244;5.724;2023-02-01T03:47:48;8.30;74.40
68922;DHT22;55959;51.244;5.724;2023-02-01T03:50:23;8.30;74.40
68922;DHT22;55959;51.244;5.724;2023-02-01T03:52:58;8.30;74.40
68922;DHT22;55959;51.244;5.724;2023-02-01T03:55:28;8.30;74.40
68922;DHT22;55959;51.244;5.724;2023-02-01T04:00:28;8.30;74.40
68922;DHT22;55959;51.244;5.724;2023-02-01T04:02:54;8.30;74.40
68922;DHT22;55959;51.244;5.724;2023-02-01T04:05:21;8.30;74.40
68922;DHT22;55959;51.244;5.724;2023-02-01T04:07:47;8.30;74.20
68922;DHT22;55959;51.244;5.724;2023-02-01T04:10:13;8.30;74.20
68922;DHT22;55959;51.244;5.724;2023-02-01T04:12:38;8.30;74.20
68922;DHT22;55959;51.244;5.724;2023-02-01T04:15:05;8.30;75.00
68922;DHT22;55959;51.244;5.724;2023-02-01T04:17:31;8.30;74.00
68922;DHT22;55959;51.244;5.724;2023-02-01T04:19:57;8.30;73.90
68922;DHT22;55959;51.244;5.724;2023-02-01T04:22:22;8.40;73.90
68922;DHT22;55959;51.244;5.724;2023-02-01T04:24:48;8.30;73.80
68922;DHT22;55959;51.244;5.724;2023-02-01T04:27:14;8.40;73.80
68922;DHT22;55959;51.244;5.724;2023-02-01T04:29:39;8.40;73.70
68922;DHT22;55959;51.244;5.724;2023-02-01T04:32:06;8.40;73.70
68922;DHT22;55959;51.244;5.724;2023-02-01T04:34:32;8.30;73.60
68922;DHT22;55959;51.244;5.724;2023-02-01T04:36:58;8.40;73.60
68922;DHT22;55959;51.244;5.724;2023-02-01T04:39:23;8.40;73.40
68922;DHT22;55959;51.244;5.724;2023-02-01T04:41:49;8.40;73.40
68922;DHT22;55959;51.244;5.724;2023-02-01T04:44:17;8.40;73.40
68922;DHT22;55959;51.244;5.724;2023-02-01T04:46:44;8.40;73.30
68922;DHT22;55959;51.244;5.724;2023-02-01T04:49:13;8.30;73.20
68922;DHT22;55959;51.244;5.724;2023-02-01T04:51:39;8.30;73.20
68922;DHT22;55959;51.244;5.724;2023-02-01T04:54:05;8.30;73.20
68922;DHT22;55959;51.244;5.724;2023-02-01T04:56:31;8.40;73.20
68922;DHT22;55959;51.244;5.724;2023-02-01T04:58:58;8.40;73.20
68922;DHT22;55959;51.244;5.724;2023-02-01T05:01:24;8.30;73.00
68922;DHT22;55959;51.244;5.724;2023-02-01T05:03:50;8.30;73.10
68922;DHT22;55959;51.244;5.724;2023-02-01T05:06:16;8.40;73.10
68922;DHT22;55959;51.244;5.724;2023-02-01T05:08:42;8.30;73.00
68922;DHT22;55959;51.244;5.724;2023-02-01T05:11:08;8.30;73.00
68922;DHT22;55959;51.244;5.724;2023-02-01T05:13:54;8.30;73.00
68922;DHT22;55959;51.244;5.724;2023-02-01T05:16:19;8.30;73.00
68922;DHT22;55959;51.244;5.724;2023-02-01T05:18:45;8.30;73.00
68922;DHT22;55959;51.244;5.724;2023-02-01T05:21:11;8.30;73.00
68922;DHT22;55959;51.244;5.724;2023-02-01T05:23:37;8.30;73.00
68922;DHT22;55959;51.244;5.724;2023-02-01T05:26:22;8.30;73.00
68922;DHT22;55959;51.244;5.724;2023-02-01T05:28:50;8.30;73.00
68922;DHT22;55959;51.244;5.724;2023-02-01T05:31:16;8.30;73.00
68922;DHT22;55959;51.244;5.724;2023-02-01T05:33:42;8.30;73.00
68922;DHT22;55959;51.244;5.724;2023-02-01T05:36:07;8.30;72.90
68922;DHT22;55959;51.244;5.724;2023-02-01T05:38:33;8.30;73.00
68922;DHT22;55959;51.244;5.724;2023-02-01T05:40:59;8.30;72.90
68922;DHT22;55959;51.244;5.724;2023-02-01T05:43:25;8.30;73.00
68922;DHT22;55959;51.244;5.724;2023-02-01T05:45:53;8.30;72.90
68922;DHT22;55959;51.244;5.724;2023-02-01T05:48:19;8.20;72.90
68922;DHT22;55959;51.244;5.724;2023-02-01T05:50:45;8.30;73.00
68922;DHT22;55959;51.244;5.724;2023-02-01T05:53:11;8.30;72.90
68922;DHT22;55959;51.244;5.724;2023-02-01T05:55:38;8.20;72.90
68922;DHT22;55959;51.244;5.724;2023-02-01T05:58:04;8.30;73.00
68922;DHT22;55959;51.244;5.724;2023-02-01T06:00:31;8.30;73.00
68922;DHT22;55959;51.244;5.724;2023-02-01T06:02:57;8.20;73.00
68922;DHT22;55959;51.244;5.724;2023-02-01T06:05:22;8.30;73.10
68922;DHT22;55959;51.244;5.724;2023-02-01T06:07:48;8.30;73.10
68922;DHT22;55959;51.244;5.724;2023-02-01T06:10:16;8.30;73.20
68922;DHT22;55959;51.244;5.724;2023-02-01T06:12:42;8.20;73.20
68922;DHT22;55959;51.244;5.724;2023-02-01T06:15:10;8.30;73.30
68922;DHT22;55959;51.244;5.724;2023-02-01T06:17:37;8.30;73.30
68922;DHT22;55959;51.244;5.724;2023-02-01T06:20:04;8.30;73.40
68922;DHT22;55959;51.244;5.724;2023-02-01T06:22:32;8.30;73.40
68922;DHT22;55959;51.244;5.724;2023-02-01T06:24:58;8.30;73.30
68922;DHT22;55959;51.244;5.724;2023-02-01T06:27:24;8.30;73.30
68922;DHT22;55959;51.244;5.724;2023-02-01T06:29:50;8.30;73.30
68922;DHT22;55959;51.244;5.724;2023-02-01T06:32:16;8.30;73.40
68922;DHT22;55959;51.244;5.724;2023-02-01T06:34:43;8.30;73.40
68922;DHT22;55959;51.244;5.724;2023-02-01T06:37:09;8.30;73.40
68922;DHT22;55959;51.244;5.724;2023-02-01T06:39:36;8.30;73.40
68922;DHT22;55959;51.244;5.724;2023-02-01T06:42:04;8.40;73.40
68922;DHT22;55959;51.244;5.724;2023-02-01T06:44:30;8.30;73.40
68922;DHT22;55959;51.244;5.724;2023-02-01T06:46:55;8.40;73.50
68922;DHT22;55959;51.244;5.724;2023-02-01T06:49:21;8.40;73.40
68922;DHT22;55959;51.244;5.724;2023-02-01T06:51:47;8.40;73.40
68922;DHT22;55959;51.244;5.724;2023-02-01T06:54:13;8.40;73.50
68922;DHT22;55959;51.244;5.724;2023-02-01T06:56:39;8.40;73.40
68922;DHT22;55959;51.244;5.724;2023-02-01T06:59:06;8.40;73.40
68922;DHT22;55959;51.244;5.724;2023-02-01T07:01:32;8.40;73.50
68922;DHT22;55959;51.244;5.724;2023-02-01T07:03:58;8.40;73.40
68922;DHT22;55959;51.244;5.724;2023-02-01T07:06:24;8.40;73.40
68922;DHT22;55959;51.244;5.724;2023-02-01T07:08:50;8.50;73.30
68922;DHT22;55959;51.244;5.724;2023-02-01T07:11:18;8.50;73.30
68922;DHT22;55959;51.244;5.724;2023-02-01T07:13:44;8.50;73.20
68922;DHT22;55959;51.244;5.724;2023-02-01T07:16:12;8.50;73.10
68922;DHT22;55959;51.244;5.724;2023-02-01T07:18:42;8.50;73.10
68922;DHT22;55959;51.244;5.724;2023-02-01T07:21:08;8.50;73.00
68922;DHT22;55959;51.244;5.724;2023-02-01T07:23:34;8.60;73.10
68922;DHT22;55959;51.244;5.724;2023-02-01T07:26:03;8.60;73.00
68922;DHT22;55959;51.244;5.724;2023-02-01T07:28:32;8.60;72.90
68922;DHT22;55959;51.244;5.724;2023-02-01T07:31:10;8.60;72.80
68922;DHT22;55959;51.244;5.724;2023-02-01T07:33:37;8.60;72.80
68922;DHT22;55959;51.244;5.724;2023-02-01T07:36:05;8.60;72.70
68922;DHT22;55959;51.244;5.724;2023-02-01T07:38:31;8.60;72.70
68922;DHT22;55959;51.244;5.724;2023-02-01T07:41:03;8.60;72.70
68922;DHT22;55959;51.244;5.724;2023-02-01T07:43:30;8.60;72.60
68922;DHT22;55959;51.244;5.724;2023-02-01T07:45:57;8.60;72.60
68922;DHT22;55959;51.244;5.724;2023-02-01T07:48:24;8.60;72.60
68922;DHT22;55959;51.244;5.724;2023-02-01T07:51:01;8.60;72.40
68922;DHT22;55959;51.244;5.724;2023-02-01T07:53:45;8.60;72.50
68922;DHT22;55959;51.244;5.724;2023-02-01T07:56:14;8.60;72.40
68922;DHT22;55959;51.244;5.724;2023-02-01T07:58:41;8.60;72.40
68922;DHT22;55959;51.244;5.724;2023-02-01T08:01:23;8.60;72.40
68922;DHT22;55959;51.244;5.724;2023-02-01T08:04:00;8.60;72.40
68922;DHT22;55959;51.244;5.724;2023-02-01T08:06:29;8.50;72.30
68922;DHT22;55959;51.244;5.724;2023-02-01T08:08:57;8.50;72.40
68922;DHT22;55959;51.244;5.724;2023-02-01T08:11:24;8.60;72.60
68922;DHT22;55959;51.244;5.724;2023-02-01T08:13:51;8.60;72.60
68922;DHT22;55959;51.244;5.724;2023-02-01T08:16:18;8.60;72.40
68922;DHT22;55959;51.244;5.724;2023-02-01T08:18:45;8.60;72.40
68922;DHT22;55959;51.244;5.724;2023-02-01T08:21:23;8.60;72.50
68922;DHT22;55959;51.244;5.724;2023-02-01T08:23:51;8.60;72.60
68922;DHT22;55959;51.244;5.724;2023-02-01T08:26:27;8.60;72.50
68922;DHT22;55959;51.244;5.724;2023-02-01T08:28:55;8.70;72.60
68922;DHT22;55959;51.244;5.724;2023-02-01T08:31:24;8.60;72.50
68922;DHT22;55959;51.244;5.724;2023-02-01T08:33:53;8.70;72.60
68922;DHT22;55959;51.244;5.724;2023-02-01T08:36:21;8.70;72.50
68922;DHT22;55959;51.244;5.724;2023-02-01T08:38:48;8.80;72.60
68922;DHT22;55959;51.244;5.724;2023-02-01T08:41:17;8.70;72.40
68922;DHT22;55959;51.244;5.724;2023-02-01T08:43:45;8.80;72.40
68922;DHT22;55959;51.244;5.724;2023-02-01T08:46:11;8.80;72.20
68922;DHT22;55959;51.244;5.724;2023-02-01T08:48:38;8.80;72.20
68922;DHT22;55959;51.244;5.724;2023-02-01T08:51:09;8.80;72.20
68922;DHT22;55959;51.244;5.724;2023-02-01T08:53:37;8.80;72.10
68922;DHT22;55959;51.244;5.724;2023-02-01T08:56:05;8.80;72.20
68922;DHT22;55959;51.244;5.724;2023-02-01T08:58:32;8.90;72.20
68922;DHT22;55959;51.244;5.724;2023-02-01T09:01:13;8.90;72.20
68922;DHT22;55959;51.244;5.724;2023-02-01T09:03:40;8.90;72.20
68922;DHT22;55959;51.244;5.724;2023-02-01T09:06:09;8.90;72.10
68922;DHT22;55959;51.244;5.724;2023-02-01T09:08:36;9.00;72.10
68922;DHT22;55959;51.244;5.724;2023-02-01T09:11:06;9.00;72.00
68922;DHT22;55959;51.244;5.724;2023-02-01T09:13:33;9.00;72.00
68922;DHT22;55959;51.244;5.724;2023-02-01T09:15:59;9.00;72.00
68922;DHT22;55959;51.244;5.724;2023-02-01T09:18:25;9.00;72.00
68922;DHT22;55959;51.244;5.724;2023-02-01T09:20:51;9.10;72.10
68922;DHT22;55959;51.244;5.724;2023-02-01T09:23:18;9.10;72.00
68922;DHT22;55959;51.244;5.724;2023-02-01T09:25:46;9.10;71.90
68922;DHT22;55959;51.244;5.724;2023-02-01T09:28:13;9.10;71.80
68922;DHT22;55959;51.244;5.724;2023-02-01T09:30:39;9.20;71.80
68922;DHT22;55959;51.244;5.724;2023-02-01T09:33:05;9.20;71.60
68922;DHT22;55959;51.244;5.724;2023-02-01T09:35:31;9.20;71.40
68922;DHT22;55959;51.244;5.724;2023-02-01T09:37:56;9.30;71.40
68922;DHT22;55959;51.244;5.724;2023-02-01T09:40:22;9.30;71.60
68922;DHT22;55959;51.244;5.724;2023-02-01T09:45:35;9.30;71.60
68922;DHT22;55959;51.244;5.724;2023-02-01T09:48:13;9.40;71.90
68922;DHT22;55959;51.244;5.724;2023-02-01T09:50:46;9.40;71.80
68922;DHT22;55959;51.244;5.724;2023-02-01T09:56:07;9.60;71.60
68922;DHT22;55959;51.244;5.724;2023-02-01T09:58:59;9.60;71.20
68922;DHT22;55959;51.244;5.724;2023-02-01T10:01:30;9.70;70.90
68922;DHT22;55959;51.244;5.724;2023-02-01T10:04:03;9.80;70.70
68922;DHT22;55959;51.244;5.724;2023-02-01T10:06:53;9.80;70.30
68922;DHT22;55959;51.244;5.724;2023-02-01T10:18:15;10.10;70.10
68922;DHT22;55959;51.244;5.724;2023-02-01T10:26:45;10.30;69.40
68922;DHT22;55959;51.244;5.724;2023-02-01T10:29:19;10.30;68.90
68922;DHT22;55959;51.244;5.724;2023-02-01T10:31:46;10.30;68.90
68922;DHT22;55959;51.244;5.724;2023-02-01T10:34:22;10.30;68.90
68922;DHT22;55959;51.244;5.724;2023-02-01T10:39:46;10.40;68.70
68922;DHT22;55959;51.244;5.724;2023-02-01T10:42:14;10.40;68.70
68922;DHT22;55959;51.244;5.724;2023-02-01T10:44:43;10.40;68.70
68922;DHT22;55959;51.244;5.724;2023-02-01T10:47:11;10.50;68.70
68922;DHT22;55959;51.244;5.724;2023-02-01T10:49:49;10.50;68.20
68922;DHT22;55959;51.244;5.724;2023-02-01T10:54:56;10.60;68.10
68922;DHT22;55959;51.244;5.724;2023-02-01T10:58:00;10.60;67.90
68922;DHT22;55959;51.244;5.724;2023-02-01T11:00:45;10.60;67.90
68922;DHT22;55959;51.244;5.724;2023-02-01T11:03:41;10.60;67.90
68922;DHT22;55959;51.244;5.724;2023-02-01T11:09:09;10.70;67.50
68922;DHT22;55959;51.244;5.724;2023-02-01T11:11:56;10.70;67.70
68922;DHT22;55959;51.244;5.724;2023-02-01T11:14:35;10.70;67.90
68922;DHT22;55959;51.244;5.724;2023-02-01T11:19:45;10.80;68.00
68922;DHT22;55959;51.244;5.724;2023-02-01T11:22:12;10.80;67.80
68922;DHT22;55959;51.244;5.724;2023-02-01T11:24:39;10.80;67.30
68922;DHT22;55959;51.244;5.724;2023-02-01T11:27:15;10.90;67.50
68922;DHT22;55959;51.244;5.724;2023-02-01T11:29:45;10.90;68.30
68922;DHT22;55959;51.244;5.724;2023-02-01T11:32:15;11.00;67.20
68922;DHT22;55959;51.244;5.724;2023-02-01T11:34:47;11.00;66.80
68922;DHT22;55959;51.244;5.724;2023-02-01T11:37:21;11.10;66.70
68922;DHT22;55959;51.244;5.724;2023-02-01T11:40:22;11.10;66.20
68922;DHT22;55959;51.244;5.724;2023-02-01T11:43:01;11.10;66.40
68922;DHT22;55959;51.244;5.724;2023-02-01T11:45:34;11.20;66.40
68922;DHT22;55959;51.244;5.724;2023-02-01T11:48:08;11.20;66.30
68922;DHT22;55959;51.244;5.724;2023-02-01T11:56:59;11.20;65.70
68922;DHT22;55959;51.244;5.724;2023-02-01T12:06:12;11.30;65.30
68922;DHT22;55959;51.244;5.724;2023-02-01T12:34:54;11.30;63.90
68922;DHT22;55959;51.244;5.724;2023-02-01T12:37:55;11.30;63.30
68922;DHT22;55959;51.244;5.724;2023-02-01T12:46:45;11.30;63.70
68922;DHT22;55959;51.244;5.724;2023-02-01T12:49:30;11.20;63.40
68922;DHT22;55959;51.244;5.724;2023-02-01T12:52:12;11.30;62.90
68922;DHT22;55959;51.244;5.724;2023-02-01T12:57:55;11.30;62.30
68922;DHT22;55959;51.244;5.724;2023-02-01T13:00:32;11.30;62.50
68922;DHT22;55959;51.244;5.724;2023-02-01T13:08:22;11.30;62.20
68922;DHT22;55959;51.244;5.724;2023-02-01T13:11:35;11.30;62.10
68922;DHT22;55959;51.244;5.724;2023-02-01T13:17:29;11.30;62.30
68922;DHT22;55959;51.244;5.724;2023-02-01T13:22:30;11.30;61.90
68922;DHT22;55959;51.244;5.724;2023-02-01T13:25:04;11.30;62.10
68922;DHT22;55959;51.244;5.724;2023-02-01T13:27:38;11.30;61.70
68922;DHT22;55959;51.244;5.724;2023-02-01T13:41:50;11.40;61.60
68922;DHT22;55959;51.244;5.724;2023-02-01T13:44:34;11.50;61.70
68922;DHT22;55959;51.244;5.724;2023-02-01T13:47:22;11.50;61.80
68922;DHT22;55959;51.244;5.724;2023-02-01T13:49:53;11.50;61.80
68922;DHT22;55959;51.244;5.724;2023-02-01T13:52:34;11.50;61.70
68922;DHT22;55959;51.244;5.724;2023-02-01T13:55:25;11.50;61.80
68922;DHT22;55959;51.244;5.724;2023-02-01T13:58:18;11.60;62.00
68922;DHT22;55959;51.244;5.724;2023-02-01T14:00:47;11.60;62.00
68922;DHT22;55959;51.244;5.724;2023-02-01T14:03:16;11.60;61.60
68922;DHT22;55959;51.244;5.724;2023-02-01T14:08:12;11.60;61.40
68922;DHT22;55959;51.244;5.724;2023-02-01T14:21:32;11.70;61.30
68922;DHT22;55959;51.244;5.724;2023-02-01T14:24:15;11.70;61.20
68922;DHT22;55959;51.244;5.724;2023-02-01T14:26:56;11.70;61.40
68922;DHT22;55959;51.244;5.724;2023-02-01T14:53:22;11.70;61.60
68922;DHT22;55959;51.244;5.724;2023-02-01T15:01:30;11.70;61.80
68922;DHT22;55959;51.244;5.724;2023-02-01T15:06:44;11.70;62.00
68922;DHT22;55959;51.244;5.724;2023-02-01T15:09:28;11.60;62.00
68922;DHT22;55959;51.244;5.724;2023-02-01T15:14:35;11.70;62.10
68922;DHT22;55959;51.244;5.724;2023-02-01T15:17:26;11.70;62.10
68922;DHT22;55959;51.244;5.724;2023-02-01T15:20:11;11.70;62.20
68922;DHT22;55959;51.244;5.724;2023-02-01T15:23:02;11.70;62.20
68922;DHT22;55959;51.244;5.724;2023-02-01T15:25:38;11.60;62.30
68922;DHT22;55959;51.244;5.724;2023-02-01T15:28:05;11.70;62.30
68922;DHT22;55959;51.244;5.724;2023-02-01T15:30:36;11.60;62.40
68922;DHT22;55959;51.244;5.724;2023-02-01T15:35:48;11.70;62.60
68922;DHT22;55959;51.244;5.724;2023-02-01T15:46:33;11.60;62.50
68922;DHT22;55959;51.244;5.724;2023-02-01T15:49:01;11.60;62.70
68922;DHT22;55959;51.244;5.724;2023-02-01T15:51:30;11.60;62.70
68922;DHT22;55959;51.244;5.724;2023-02-01T15:54:06;11.60;62.90
68922;DHT22;55959;51.244;5.724;2023-02-01T15:56:39;11.60;62.80
68922;DHT22;55959;51.244;5.724;2023-02-01T15:59:22;11.60;62.90
68922;DHT22;55959;51.244;5.724;2023-02-01T16:01:50;11.60;62.90
68922;DHT22;55959;51.244;5.724;2023-02-01T16:06:58;11.60;62.90
68922;DHT22;55959;51.244;5.724;2023-02-01T16:09:53;11.60;62.90
68922;DHT22;55959;51.244;5.724;2023-02-01T16:15:09;11.60;62.90
68922;DHT22;55959;51.244;5.724;2023-02-01T16:17:34;11.60;62.90
68922;DHT22;55959;51.244;5.724;2023-02-01T16:20:00;11.50;62.90
68922;DHT22;55959;51.244;5.724;2023-02-01T16:22:26;11.60;62.80
68922;DHT22;55959;51.244;5.724;2023-02-01T16:24:51;11.60;62.80
68922;DHT22;55959;51.244;5.724;2023-02-01T16:27:17;11.60;62.80
68922;DHT22;55959;51.244;5.724;2023-02-01T16:29:43;11.60;62.70
68922;DHT22;55959;51.244;5.724;2023-02-01T16:32:20;11.60;62.80
68922;DHT22;55959;51.244;5.724;2023-02-01T16:34:47;11.60;62.80
68922;DHT22;55959;51.244;5.724;2023-02-01T16:37:23;11.60;63.80
68922;DHT22;55959;51.244;5.724;2023-02-01T16:39:50;11.60;62.90
68922;DHT22;55959;51.244;5.724;2023-02-01T16:42:16;11.60;62.90
68922;DHT22;55959;51.244;5.724;2023-02-01T16:44:43;11.50;62.90
68922;DHT22;55959;51.244;5.724;2023-02-01T16:47:19;11.50;62.90
68922;DHT22;55959;51.244;5.724;2023-02-01T16:49:46;11.60;63.10
68922;DHT22;55959;51.244;5.724;2023-02-01T16:52:24;11.60;63.10
68922;DHT22;55959;51.244;5.724;2023-02-01T16:54:50;11.60;63.10
68922;DHT22;55959;51.244;5.724;2023-02-01T16:57:19;11.60;63.10
68922;DHT22;55959;51.244;5.724;2023-02-01T16:59:47;11.60;63.10
68922;DHT22;55959;51.244;5.724;2023-02-01T17:02:15;11.60;63.20
68922;DHT22;55959;51.244;5.724;2023-02-01T17:04:42;11.50;63.10
68922;DHT22;55959;51.244;5.724;2023-02-01T17:07:26;11.60;63.30
68922;DHT22;55959;51.244;5.724;2023-02-01T17:09:52;11.50;63.30
68922;DHT22;55959;51.244;5.724;2023-02-01T17:12:24;11.50;63.20
68922;DHT22;55959;51.244;5.724;2023-02-01T17:14:55;11.50;63.30
68922;DHT22;55959;51.244;5.724;2023-02-01T17:17:23;11.50;63.40
68922;DHT22;55959;51.244;5.724;2023-02-01T17:19:52;11.50;63.40
68922;DHT22;55959;51.244;5.724;2023-02-01T17:22:22;11.50;63.50
68922;DHT22;55959;51.244;5.724;2023-02-01T17:24:49;11.50;63.50
68922;DHT22;55959;51.244;5.724;2023-02-01T17:27:16;11.50;63.60
68922;DHT22;55959;51.244;5.724;2023-02-01T17:29:42;11.50;63.60
68922;DHT22;55959;51.244;5.724;2023-02-01T17:32:22;11.50;63.60
68922;DHT22;55959;51.244;5.724;2023-02-01T17:34:49;11.50;63.70
68922;DHT22;55959;51.244;5.724;2023-02-01T17:37:27;11.50;63.70
68922;DHT22;55959;51.244;5.724;2023-02-01T17:39:56;11.50;63.70
68922;DHT22;55959;51.244;5.724;2023-02-01T17:42:26;11.50;63.70
68922;DHT22;55959;51.244;5.724;2023-02-01T17:45:01;11.50;63.80
68922;DHT22;55959;51.244;5.724;2023-02-01T17:47:45;11.50;63.90
68922;DHT22;55959;51.244;5.724;2023-02-01T17:50:12;11.50;63.90
68922;DHT22;55959;51.244;5.724;2023-02-01T17:52:38;11.50;63.90
68922;DHT22;55959;51.244;5.724;2023-02-01T17:55:31;11.50;63.90
68922;DHT22;55959;51.244;5.724;2023-02-01T17:57:58;11.50;63.90
68922;DHT22;55959;51.244;5.724;2023-02-01T18:00:23;11.50;63.90
68922;DHT22;55959;51.244;5.724;2023-02-01T18:02:49;11.40;63.90
68922;DHT22;55959;51.244;5.724;2023-02-01T18:05:22;11.40;63.90
68922;DHT22;55959;51.244;5.724;2023-02-01T18:07:51;11.40;64.80
68922;DHT22;55959;51.244;5.724;2023-02-01T18:10:17;11.40;63.90
68922;DHT22;55959;51.244;5.724;2023-02-01T18:12:43;11.40;63.90
68922;DHT22;55959;51.244;5.724;2023-02-01T18:15:18;11.40;64.00
68922;DHT22;55959;51.244;5.724;2023-02-01T18:17:45;11.40;64.00
68922;DHT22;55959;51.244;5.724;2023-02-01T18:20:17;11.40;64.00
68922;DHT22;55959;51.244;5.724;2023-02-01T18:22:44;11.50;64.20
68922;DHT22;55959;51.244;5.724;2023-02-01T18:25:24;11.40;64.10
68922;DHT22;55959;51.244;5.724;2023-02-01T18:27:53;11.50;64.10
68922;DHT22;55959;51.244;5.724;2023-02-01T18:30:23;11.50;64.20
68922;DHT22;55959;51.244;5.724;2023-02-01T18:32:50;11.50;64.10
68922;DHT22;55959;51.244;5.724;2023-02-01T18:35:27;11.50;64.20
68922;DHT22;55959;51.244;5.724;2023-02-01T18:37:55;11.50;64.20
68922;DHT22;55959;51.244;5.724;2023-02-01T18:40:32;11.50;64.20
68922;DHT22;55959;51.244;5.724;2023-02-01T18:43:00;11.50;64.20
68922;DHT22;55959;51.244;5.724;2023-02-01T18:45:38;11.50;64.20
68922;DHT22;55959;51.244;5.724;2023-02-01T18:48:07;11.50;64.30
68922;DHT22;55959;51.244;5.724;2023-02-01T18:50:36;11.50;64.20
68922;DHT22;55959;51.244;5.724;2023-02-01T18:53:05;11.50;64.30
68922;DHT22;55959;51.244;5.724;2023-02-01T18:55:36;11.50;64.30
68922;DHT22;55959;51.244;5.724;2023-02-01T18:58:03;11.50;64.30
68922;DHT22;55959;51.244;5.724;2023-02-01T19:00:34;11.50;64.30
68922;DHT22;55959;51.244;5.724;2023-02-01T19:03:00;11.50;64.30
68922;DHT22;55959;51.244;5.724;2023-02-01T19:05:26;11.50;64.40
68922;DHT22;55959;51.244;5.724;2023-02-01T19:07:53;11.50;64.40
68922;DHT22;55959;51.244;5.724;2023-02-01T19:10:20;11.50;64.40
68922;DHT22;55959;51.244;5.724;2023-02-01T19:12:48;11.50;64.40
68922;DHT22;55959;51.244;5.724;2023-02-01T19:15:15;11.50;64.30
68922;DHT22;55959;51.244;5.724;2023-02-01T19:17:43;11.50;64.40
68922;DHT22;55959;51.244;5.724;2023-02-01T19:20:13;11.50;64.50
68922;DHT22;55959;51.244;5.724;2023-02-01T19:22:40;11.50;64.50
68922;DHT22;55959;51.244;5.724;2023-02-01T19:25:08;11.50;64.50
68922;DHT22;55959;51.244;5.724;2023-02-01T19:27:38;11.50;64.50